weather.gov     
National Weather Service

Terminal Aerodrome Forecast
NWS Homepage
This page is being discontinued on March 12, 2014.
The same data is available at this site. Please update your bookmarks.
Thank you, and we apologize for the inconvenience.
Please send an email to SR-SRH.Webmaster@noaa.gov with any concerns.


Current Version
Previous Version:    01  02  03  04  05  06  07  08  09  10  11  12  13  14  15  16  17  18  19  20  21  22  23  24  25  
[Printable]
568
FTUS43 KICT 311745
TAFCNU
TAF
KCNU 311745Z 3118/0118 17011KT 6SM -RA SCT030 OVC045
     FM312300 16011KT 5SM -RA SCT015 OVC030
     FM010200 15009KT 5SM -RA SCT009 OVC015
     FM010500 15009KT 5SM -RA SCT007 OVC009
     FM011200 24009KT 6SM -RA SCT007 OVC009
     FM011500 32016G23KT P6SM SCT009 OVC015=


568
FTUS43 KICT 311745
TAFCNU
TAF
KCNU 311745Z 3118/0118 17011KT 6SM -RA SCT030 OVC045
     FM312300 16011KT 5SM -RA SCT015 OVC030
     FM010200 15009KT 5SM -RA SCT009 OVC015
     FM010500 15009KT 5SM -RA SCT007 OVC009
     FM011200 24009KT 6SM -RA SCT007 OVC009
     FM011500 32016G23KT P6SM SCT009 OVC015=




U.S. Dept. of Commerce
NOAA National Weather Service
1325 East West Highway
Silver Spring, MD 20910
E-mail: w-nws.webmaster@noaa.gov
Page last modified: May 16, 2007
NATIONAL WEATHER SERVICE: for Safety, for Work, for Fun - FOR LIFE